createdAt,value
2023-01-28T00:00:50.526Z,965.80
2023-01-28T00:01:50.444Z,965.77
2023-01-28T00:02:50.441Z,965.80
2023-01-28T00:03:50.347Z,965.81
2023-01-28T00:04:50.236Z,965.77
2023-01-28T00:05:50.166Z,965.79
2023-01-28T00:06:50.107Z,965.79
2023-01-28T00:07:49.924Z,965.78
2023-01-28T00:08:49.962Z,965.80
2023-01-28T00:09:49.873Z,965.79
2023-01-28T00:10:49.818Z,965.76
2023-01-28T00:11:49.745Z,965.75
2023-01-28T00:12:49.662Z,965.78
2023-01-28T00:13:49.603Z,965.73
2023-01-28T00:14:49.517Z,965.76
2023-01-28T00:15:49.467Z,965.71
2023-01-28T00:16:49.374Z,965.77
2023-01-28T00:17:49.335Z,965.78
2023-01-28T00:18:49.245Z,965.78
2023-01-28T00:19:49.165Z,965.79
2023-01-28T00:20:49.095Z,965.76
2023-01-28T00:21:49.021Z,965.69
2023-01-28T00:22:51.087Z,965.72
2023-01-28T00:23:48.874Z,965.73
2023-01-28T00:24:48.811Z,965.72
2023-01-28T00:25:48.735Z,965.70
2023-01-28T00:26:48.661Z,965.74
2023-01-28T00:27:48.596Z,965.73
2023-01-28T00:28:48.519Z,965.76
2023-01-28T00:29:48.462Z,965.77
2023-01-28T00:30:48.405Z,965.81
2023-01-28T00:31:48.323Z,965.79
2023-01-28T00:32:48.249Z,965.75
2023-01-28T00:33:48.165Z,965.74
2023-01-28T00:34:48.092Z,965.75
2023-01-28T00:35:48.030Z,965.75
2023-01-28T00:36:47.950Z,965.77
2023-01-28T00:37:47.878Z,965.77
2023-01-28T00:38:47.826Z,965.75
2023-01-28T00:39:47.733Z,965.74
2023-01-28T00:40:47.679Z,965.72
2023-01-28T00:41:47.505Z,965.76
2023-01-28T00:42:47.522Z,965.74
2023-01-28T00:43:47.471Z,965.73
2023-01-28T00:44:47.374Z,965.73
2023-01-28T00:45:50.093Z,965.72
2023-01-28T00:46:47.238Z,965.72
2023-01-28T00:47:47.165Z,965.75
2023-01-28T00:48:47.107Z,965.77
2023-01-28T00:49:47.031Z,965.75
2023-01-28T00:50:46.964Z,965.72
2023-01-28T00:51:46.888Z,965.75
2023-01-28T00:52:46.822Z,965.71
2023-01-28T00:53:46.742Z,965.69
2023-01-28T00:54:46.566Z,965.66
2023-01-28T00:55:46.595Z,965.68
2023-01-28T00:56:46.546Z,965.72
2023-01-28T00:57:46.448Z,965.72
2023-01-28T00:58:46.395Z,965.75
2023-01-28T00:59:46.308Z,965.73
2023-01-28T01:00:46.240Z,965.72
2023-01-28T01:01:46.213Z,965.74
2023-01-28T01:02:46.110Z,965.81
2023-01-28T01:03:46.043Z,965.79
2023-01-28T01:04:45.953Z,965.77
2023-01-28T01:05:45.878Z,965.82
2023-01-28T01:06:45.806Z,965.77
2023-01-28T01:07:45.739Z,965.79
2023-01-28T01:08:45.661Z,965.80
2023-01-28T01:09:45.633Z,965.81
2023-01-28T01:10:45.534Z,965.82
2023-01-28T01:11:45.459Z,965.88
2023-01-28T01:12:45.378Z,965.88
2023-01-28T01:13:45.307Z,965.86
2023-01-28T01:14:45.237Z,965.81
2023-01-28T01:15:45.099Z,965.84
2023-01-28T01:16:45.100Z,965.85
2023-01-28T01:17:45.089Z,965.86
2023-01-28T01:18:44.957Z,965.86
2023-01-28T01:19:44.897Z,965.87
2023-01-28T01:20:44.828Z,965.88
2023-01-28T01:21:44.743Z,965.90
2023-01-28T01:22:44.687Z,965.89
2023-01-28T01:23:44.599Z,965.87
2023-01-28T01:24:44.521Z,965.87
2023-01-28T01:25:44.460Z,965.86
2023-01-28T01:26:44.381Z,965.86
2023-01-28T01:27:44.315Z,965.83
2023-01-28T01:28:44.239Z,965.84
2023-01-28T01:29:44.167Z,965.82
2023-01-28T01:30:44.115Z,965.88
2023-01-28T01:31:44.061Z,965.90
2023-01-28T01:32:43.866Z,965.85
2023-01-28T01:33:43.890Z,965.89
2023-01-28T01:34:43.811Z,965.91
2023-01-28T01:35:43.734Z,965.89
2023-01-28T01:36:43.670Z,965.90
2023-01-28T01:37:43.601Z,965.89
2023-01-28T01:38:43.537Z,965.87
2023-01-28T01:39:43.455Z,965.93
2023-01-28T01:40:43.385Z,965.94
2023-01-28T01:41:43.314Z,965.91
2023-01-28T01:42:43.238Z,965.94
2023-01-28T01:43:43.167Z,965.97
2023-01-28T01:44:43.091Z,965.98
2023-01-28T01:45:43.058Z,965.99
2023-01-28T01:46:42.951Z,966.00
2023-01-28T01:47:42.882Z,965.95
2023-01-28T01:48:42.808Z,966.01
2023-01-28T01:49:42.642Z,966.02
2023-01-28T01:50:42.675Z,966.04
2023-01-28T21:41:30.620Z,971.44
2023-01-28T21:52:03.561Z,971.49
2023-01-28T21:53:02.897Z,971.50
2023-01-28T21:59:36.137Z,971.38
2023-01-28T22:00:35.860Z,971.42
2023-01-28T22:01:35.973Z,971.45
2023-01-28T22:02:38.822Z,971.45
2023-01-28T22:03:39.852Z,971.44
2023-01-28T22:04:39.116Z,971.39
2023-01-28T22:05:37.434Z,971.40
2023-01-28T22:06:35.308Z,971.40
2023-01-28T22:07:36.033Z,971.41
2023-01-28T22:08:35.321Z,971.41
2023-01-28T22:09:35.122Z,971.46
2023-01-28T22:10:35.116Z,971.42
2023-01-28T22:11:34.949Z,971.45
2023-01-28T22:12:35.538Z,971.44
2023-01-28T22:13:34.800Z,971.43
2023-01-28T22:14:34.733Z,971.43
2023-01-28T22:15:34.664Z,971.47
2023-01-28T22:16:34.587Z,971.43
2023-01-28T22:17:34.514Z,971.44
2023-01-28T22:18:34.437Z,971.41
2023-01-28T22:19:34.371Z,971.48
2023-01-28T22:20:34.296Z,971.40
2023-01-28T22:21:34.228Z,971.43
2023-01-28T22:22:34.167Z,971.42
2023-01-28T22:23:34.090Z,971.41
2023-01-28T22:24:34.311Z,971.46
2023-01-28T22:25:33.954Z,971.48
2023-01-28T22:26:33.875Z,971.45
2023-01-28T22:27:33.800Z,971.42
2023-01-28T22:28:33.767Z,971.42
2023-01-28T22:29:33.657Z,971.41
2023-01-28T22:30:33.611Z,971.42
2023-01-28T22:31:33.672Z,971.44
2023-01-28T22:32:33.453Z,971.46
2023-01-28T22:33:33.374Z,971.47
2023-01-28T22:34:33.310Z,971.46
2023-01-28T22:35:33.241Z,971.42
2023-01-28T22:36:33.165Z,971.45
2023-01-28T22:37:33.094Z,971.45
2023-01-28T22:38:33.024Z,971.43
2023-01-28T22:39:32.951Z,971.43
2023-01-28T22:40:32.884Z,971.38
2023-01-28T22:41:32.820Z,971.39
2023-01-28T22:42:32.734Z,971.37
2023-01-28T22:43:32.670Z,971.40
2023-01-28T22:44:32.596Z,971.38
2023-01-28T22:45:32.540Z,971.37
2023-01-28T22:46:33.406Z,971.35
2023-01-28T22:47:32.386Z,971.38
2023-01-28T22:48:32.322Z,971.39
2023-01-28T22:49:32.241Z,971.39
2023-01-28T22:50:32.185Z,971.35
2023-01-28T22:51:32.107Z,971.37
2023-01-28T22:52:32.026Z,971.37
2023-01-28T22:53:31.958Z,971.32
2023-01-28T22:54:31.893Z,971.37
2023-01-28T22:55:31.866Z,971.38
2023-01-28T22:56:31.754Z,971.36
2023-01-28T22:57:31.684Z,971.38
2023-01-28T22:58:31.967Z,971.38
2023-01-28T22:59:31.533Z,971.39
2023-01-28T23:00:31.460Z,971.41
2023-01-28T23:01:31.517Z,971.44
2023-01-28T23:02:31.368Z,971.42
2023-01-28T23:03:31.251Z,971.43
2023-01-28T23:04:31.179Z,971.44
2023-01-28T23:05:31.112Z,971.41
2023-01-28T23:06:31.069Z,971.42
2023-01-28T23:07:30.965Z,971.43
2023-01-28T23:08:30.917Z,971.38
2023-01-28T23:09:30.823Z,971.42
2023-01-28T23:10:32.521Z,971.40
2023-01-28T23:11:30.680Z,971.34
2023-01-28T23:12:30.612Z,971.33
2023-01-28T23:13:30.544Z,971.37
2023-01-28T23:14:30.472Z,971.38
2023-01-28T23:15:30.404Z,971.34
2023-01-28T23:16:30.327Z,971.36
2023-01-28T23:17:30.299Z,971.39
2023-01-28T23:18:30.196Z,971.38
2023-01-28T23:19:30.125Z,971.33
2023-01-28T23:20:30.058Z,971.37
2023-01-28T23:21:29.973Z,971.35
2023-01-28T23:22:29.917Z,971.41
2023-01-28T23:23:29.827Z,971.37
2023-01-28T23:24:29.831Z,971.40
2023-01-28T23:25:29.692Z,971.39
2023-01-28T23:26:29.646Z,971.46
2023-01-28T23:27:29.548Z,971.44
2023-01-28T23:28:29.477Z,971.43
2023-01-28T23:29:29.406Z,971.41
2023-01-28T23:30:29.332Z,971.41
2023-01-28T23:31:29.298Z,971.40
2023-01-28T23:32:29.191Z,971.42
2023-01-28T23:33:29.130Z,971.39
2023-01-28T23:34:29.055Z,971.39
2023-01-28T23:35:28.993Z,971.37
2023-01-28T23:36:28.911Z,971.37
2023-01-28T23:37:28.832Z,971.34
2023-01-28T23:38:28.765Z,971.41
2023-01-28T23:39:28.691Z,971.39
2023-01-28T23:40:28.624Z,971.37
2023-01-28T23:41:28.549Z,971.35
2023-01-28T23:42:28.521Z,971.39
2023-01-28T23:43:28.413Z,971.42
2023-01-28T23:44:28.341Z,971.34
2023-01-28T23:45:28.262Z,971.34
2023-01-28T23:46:39.049Z,971.36
2023-01-28T23:47:28.138Z,971.37
2023-01-28T23:48:28.053Z,971.33
2023-01-28T23:49:27.985Z,971.34
2023-01-28T23:50:27.908Z,971.36
2023-01-28T23:51:27.842Z,971.29
2023-01-28T23:52:27.796Z,971.28
2023-01-28T23:53:27.697Z,971.33
2023-01-28T23:54:27.631Z,971.31
2023-01-28T23:55:27.555Z,971.41
2023-01-28T23:56:27.521Z,971.36
2023-01-28T23:57:27.414Z,971.38
2023-01-28T23:58:42.613Z,971.31
2023-01-28T23:59:27.272Z,971.33
